sensor_id;sensor_type;location;lat;lon;timestamp;temperature;humidity
7341;DHT22;6870;50.944;6.932;2022-12-18T00:00:08;16.20;33.20
7341;DHT22;6870;50.944;6.932;2022-12-18T00:02:37;16.10;32.90
7341;DHT22;6870;50.944;6.932;2022-12-18T00:05:06;16.40;33.20
7341;DHT22;6870;50.944;6.932;2022-12-18T00:07:35;16.10;32.70
7341;DHT22;6870;50.944;6.932;2022-12-18T00:10:04;16.40;33.10
7341;DHT22;6870;50.944;6.932;2022-12-18T00:12:33;16.10;32.50
7341;DHT22;6870;50.944;6.932;2022-12-18T00:15:02;16.30;32.70
7341;DHT22;6870;50.944;6.932;2022-12-18T00:17:32;16.20;32.70
7341;DHT22;6870;50.944;6.932;2022-12-18T00:20:01;16.40;32.80
7341;DHT22;6870;50.944;6.932;2022-12-18T00:22:29;16.30;32.70
7341;DHT22;6870;50.944;6.932;2022-12-18T00:24:57;16.00;32.30
7341;DHT22;6870;50.944;6.932;2022-12-18T00:27:25;16.40;32.60
7341;DHT22;6870;50.944;6.932;2022-12-18T00:29:53;16.40;32.60
7341;DHT22;6870;50.944;6.932;2022-12-18T00:32:22;16.30;32.60
7341;DHT22;6870;50.944;6.932;2022-12-18T00:34:51;16.20;32.20
7341;DHT22;6870;50.944;6.932;2022-12-18T00:37:19;16.10;32.20
7341;DHT22;6870;50.944;6.932;2022-12-18T00:39:48;16.20;32.30
7341;DHT22;6870;50.944;6.932;2022-12-18T00:42:16;16.20;32.00
7341;DHT22;6870;50.944;6.932;2022-12-18T00:45:02;16.20;31.90
7341;DHT22;6870;50.944;6.932;2022-12-18T00:47:38;16.20;32.10
7341;DHT22;6870;50.944;6.932;2022-12-18T00:50:09;15.90;31.80
7341;DHT22;6870;50.944;6.932;2022-12-18T00:52:37;16.50;32.30
7341;DHT22;6870;50.944;6.932;2022-12-18T00:55:06;16.30;32.20
7341;DHT22;6870;50.944;6.932;2022-12-18T00:57:34;16.10;31.90
7341;DHT22;6870;50.944;6.932;2022-12-18T01:00:03;16.20;31.70
7341;DHT22;6870;50.944;6.932;2022-12-18T01:02:33;16.20;31.70
7341;DHT22;6870;50.944;6.932;2022-12-18T01:05:02;15.80;31.30
7341;DHT22;6870;50.944;6.932;2022-12-18T01:07:31;16.40;31.90
7341;DHT22;6870;50.944;6.932;2022-12-18T01:09:59;16.00;31.40
7341;DHT22;6870;50.944;6.932;2022-12-18T01:12:28;16.40;31.90
7341;DHT22;6870;50.944;6.932;2022-12-18T01:14:56;16.20;31.70
7341;DHT22;6870;50.944;6.932;2022-12-18T01:17:24;16.10;31.70
7341;DHT22;6870;50.944;6.932;2022-12-18T01:19:52;15.90;31.30
7341;DHT22;6870;50.944;6.932;2022-12-18T01:22:20;16.10;31.50
7341;DHT22;6870;50.944;6.932;2022-12-18T01:24:50;16.20;31.60
7341;DHT22;6870;50.944;6.932;2022-12-18T01:27:18;16.20;31.50
7341;DHT22;6870;50.944;6.932;2022-12-18T01:29:46;16.20;31.70
7341;DHT22;6870;50.944;6.932;2022-12-18T01:32:14;16.00;31.30
7341;DHT22;6870;50.944;6.932;2022-12-18T01:34:42;16.40;31.50
7341;DHT22;6870;50.944;6.932;2022-12-18T01:37:10;16.30;31.70
7341;DHT22;6870;50.944;6.932;2022-12-18T01:39:38;15.30;31.10
7341;DHT22;6870;50.944;6.932;2022-12-18T01:42:12;15.80;28.80
7341;DHT22;6870;50.944;6.932;2022-12-18T01:44:57;15.90;27.60
7341;DHT22;6870;50.944;6.932;2022-12-18T01:47:30;15.70;28.10
7341;DHT22;6870;50.944;6.932;2022-12-18T01:50:05;15.70;28.40
7341;DHT22;6870;50.944;6.932;2022-12-18T01:52:36;15.80;28.70
7341;DHT22;6870;50.944;6.932;2022-12-18T01:55:10;15.80;28.90
7341;DHT22;6870;50.944;6.932;2022-12-18T01:57:40;15.80;29.40
7341;DHT22;6870;50.944;6.932;2022-12-18T02:00:12;15.90;29.70
7341;DHT22;6870;50.944;6.932;2022-12-18T02:02:41;15.90;30.00
7341;DHT22;6870;50.944;6.932;2022-12-18T02:05:12;15.80;30.00
7341;DHT22;6870;50.944;6.932;2022-12-18T02:07:48;15.80;30.30
7341;DHT22;6870;50.944;6.932;2022-12-18T02:10:27;15.80;30.60
7341;DHT22;6870;50.944;6.932;2022-12-18T02:13:02;15.70;31.60
7341;DHT22;6870;50.944;6.932;2022-12-18T02:15:39;15.90;31.10
7341;DHT22;6870;50.944;6.932;2022-12-18T02:18:11;16.20;31.50
7341;DHT22;6870;50.944;6.932;2022-12-18T02:20:45;15.70;31.20
7341;DHT22;6870;50.944;6.932;2022-12-18T02:23:26;15.70;31.50
7341;DHT22;6870;50.944;6.932;2022-12-18T02:26:13;15.70;31.70
7341;DHT22;6870;50.944;6.932;2022-12-18T02:28:46;15.80;32.00
7341;DHT22;6870;50.944;6.932;2022-12-18T02:31:18;15.80;32.10
7341;DHT22;6870;50.944;6.932;2022-12-18T02:33:49;15.60;32.10
7341;DHT22;6870;50.944;6.932;2022-12-18T02:36:20;16.00;32.50
7341;DHT22;6870;50.944;6.932;2022-12-18T02:38:50;15.80;32.50
7341;DHT22;6870;50.944;6.932;2022-12-18T02:41:21;15.90;32.60
7341;DHT22;6870;50.944;6.932;2022-12-18T02:43:58;16.20;34.10
7341;DHT22;6870;50.944;6.932;2022-12-18T02:46:34;15.80;33.10
7341;DHT22;6870;50.944;6.932;2022-12-18T02:49:12;16.00;33.50
7341;DHT22;6870;50.944;6.932;2022-12-18T02:51:52;15.80;33.40
7341;DHT22;6870;50.944;6.932;2022-12-18T02:54:40;15.80;33.50
7341;DHT22;6870;50.944;6.932;2022-12-18T02:57:19;15.70;33.80
7341;DHT22;6870;50.944;6.932;2022-12-18T02:59:57;15.90;34.00
7341;DHT22;6870;50.944;6.932;2022-12-18T03:02:33;15.70;34.10
7341;DHT22;6870;50.944;6.932;2022-12-18T03:05:10;15.70;34.40
7341;DHT22;6870;50.944;6.932;2022-12-18T03:07:45;16.00;34.60
7341;DHT22;6870;50.944;6.932;2022-12-18T03:10:19;15.70;34.70
7341;DHT22;6870;50.944;6.932;2022-12-18T03:12:53;15.70;34.90
7341;DHT22;6870;50.944;6.932;2022-12-18T03:15:24;15.90;35.50
7341;DHT22;6870;50.944;6.932;2022-12-18T03:17:59;16.20;36.10
7341;DHT22;6870;50.944;6.932;2022-12-18T03:20:30;15.80;35.70
7341;DHT22;6870;50.944;6.932;2022-12-18T03:23:04;15.70;35.90
7341;DHT22;6870;50.944;6.932;2022-12-18T03:25:39;15.70;36.20
7341;DHT22;6870;50.944;6.932;2022-12-18T03:28:14;15.70;36.30
7341;DHT22;6870;50.944;6.932;2022-12-18T03:30:44;15.70;36.30
7341;DHT22;6870;50.944;6.932;2022-12-18T03:33:16;15.80;36.70
7341;DHT22;6870;50.944;6.932;2022-12-18T03:35:47;15.70;36.40
7341;DHT22;6870;50.944;6.932;2022-12-18T03:38:15;15.70;37.70
7341;DHT22;6870;50.944;6.932;2022-12-18T03:40:53;15.70;36.80
7341;DHT22;6870;50.944;6.932;2022-12-18T03:43:36;15.70;36.80
7341;DHT22;6870;50.944;6.932;2022-12-18T03:46:15;15.80;36.80
7341;DHT22;6870;50.944;6.932;2022-12-18T03:48:49;16.00;37.00
7341;DHT22;6870;50.944;6.932;2022-12-18T03:51:25;15.80;37.40
7341;DHT22;6870;50.944;6.932;2022-12-18T03:53:57;15.70;37.40
7341;DHT22;6870;50.944;6.932;2022-12-18T03:56:29;15.80;37.40
7341;DHT22;6870;50.944;6.932;2022-12-18T03:59:01;15.90;37.60
7341;DHT22;6870;50.944;6.932;2022-12-18T04:01:32;15.80;37.60
7341;DHT22;6870;50.944;6.932;2022-12-18T04:04:02;15.80;37.70
7341;DHT22;6870;50.944;6.932;2022-12-18T04:06:35;15.70;37.90
7341;DHT22;6870;50.944;6.932;2022-12-18T04:09:04;15.90;38.10
7341;DHT22;6870;50.944;6.932;2022-12-18T04:11:32;16.00;38.10
7341;DHT22;6870;50.944;6.932;2022-12-18T04:14:02;16.00;38.10
7341;DHT22;6870;50.944;6.932;2022-12-18T04:16:33;16.00;38.20
7341;DHT22;6870;50.944;6.932;2022-12-18T04:19:01;15.90;38.40
7341;DHT22;6870;50.944;6.932;2022-12-18T04:21:29;15.80;38.40
7341;DHT22;6870;50.944;6.932;2022-12-18T04:23:57;15.80;38.70
7341;DHT22;6870;50.944;6.932;2022-12-18T04:26:25;15.70;38.20
7341;DHT22;6870;50.944;6.932;2022-12-18T04:28:53;15.70;38.40
7341;DHT22;6870;50.944;6.932;2022-12-18T04:31:22;15.70;38.70
7341;DHT22;6870;50.944;6.932;2022-12-18T04:33:50;15.90;38.80
7341;DHT22;6870;50.944;6.932;2022-12-18T04:36:19;15.70;38.70
7341;DHT22;6870;50.944;6.932;2022-12-18T04:38:47;15.60;38.70
7341;DHT22;6870;50.944;6.932;2022-12-18T04:41:15;15.80;38.90
7341;DHT22;6870;50.944;6.932;2022-12-18T04:43:43;15.80;39.00
7341;DHT22;6870;50.944;6.932;2022-12-18T04:46:11;15.70;38.80
7341;DHT22;6870;50.944;6.932;2022-12-18T04:48:41;15.80;39.00
7341;DHT22;6870;50.944;6.932;2022-12-18T04:51:09;15.70;38.70
7341;DHT22;6870;50.944;6.932;2022-12-18T04:53:37;15.70;38.70
7341;DHT22;6870;50.944;6.932;2022-12-18T04:56:07;15.70;38.70
7341;DHT22;6870;50.944;6.932;2022-12-18T04:58:37;15.70;39.10
7341;DHT22;6870;50.944;6.932;2022-12-18T05:01:06;15.70;39.20
7341;DHT22;6870;50.944;6.932;2022-12-18T05:03:35;15.80;39.40
7341;DHT22;6870;50.944;6.932;2022-12-18T05:06:07;15.70;39.30
7341;DHT22;6870;50.944;6.932;2022-12-18T05:08:35;15.80;39.40
7341;DHT22;6870;50.944;6.932;2022-12-18T05:11:06;15.70;39.40
7341;DHT22;6870;50.944;6.932;2022-12-18T05:13:36;15.70;39.50
7341;DHT22;6870;50.944;6.932;2022-12-18T05:16:06;15.70;39.30
7341;DHT22;6870;50.944;6.932;2022-12-18T05:18:35;15.70;39.40
7341;DHT22;6870;50.944;6.932;2022-12-18T05:21:04;15.70;39.30
7341;DHT22;6870;50.944;6.932;2022-12-18T05:23:33;15.70;39.40
7341;DHT22;6870;50.944;6.932;2022-12-18T05:26:04;15.80;39.50
7341;DHT22;6870;50.944;6.932;2022-12-18T05:28:35;15.80;39.10
7341;DHT22;6870;50.944;6.932;2022-12-18T05:31:04;15.90;39.00
7341;DHT22;6870;50.944;6.932;2022-12-18T05:33:34;15.70;38.90
7341;DHT22;6870;50.944;6.932;2022-12-18T05:36:04;15.60;38.70
7341;DHT22;6870;50.944;6.932;2022-12-18T05:38:37;15.70;38.90
7341;DHT22;6870;50.944;6.932;2022-12-18T05:41:06;15.60;38.90
7341;DHT22;6870;50.944;6.932;2022-12-18T05:43:36;15.70;38.80
7341;DHT22;6870;50.944;6.932;2022-12-18T05:46:07;16.00;39.00
7341;DHT22;6870;50.944;6.932;2022-12-18T05:48:36;15.80;39.30
7341;DHT22;6870;50.944;6.932;2022-12-18T05:51:07;15.60;39.00
7341;DHT22;6870;50.944;6.932;2022-12-18T05:53:37;15.60;39.10
7341;DHT22;6870;50.944;6.932;2022-12-18T05:56:08;15.80;39.10
7341;DHT22;6870;50.944;6.932;2022-12-18T05:58:38;15.70;39.10
7341;DHT22;6870;50.944;6.932;2022-12-18T06:01:08;15.90;39.50
7341;DHT22;6870;50.944;6.932;2022-12-18T06:03:37;15.60;39.80
7341;DHT22;6870;50.944;6.932;2022-12-18T06:06:14;15.70;39.30
7341;DHT22;6870;50.944;6.932;2022-12-18T06:08:43;15.70;39.50
7341;DHT22;6870;50.944;6.932;2022-12-18T06:11:15;15.70;39.20
7341;DHT22;6870;50.944;6.932;2022-12-18T06:13:44;15.70;39.30
7341;DHT22;6870;50.944;6.932;2022-12-18T06:16:13;15.70;39.30
7341;DHT22;6870;50.944;6.932;2022-12-18T06:18:41;15.70;39.20
7341;DHT22;6870;50.944;6.932;2022-12-18T06:21:09;15.80;39.10
7341;DHT22;6870;50.944;6.932;2022-12-18T06:23:39;15.70;39.50
7341;DHT22;6870;50.944;6.932;2022-12-18T06:26:09;15.70;39.50
7341;DHT22;6870;50.944;6.932;2022-12-18T06:28:38;15.60;39.50
7341;DHT22;6870;50.944;6.932;2022-12-18T06:31:06;15.80;39.50
7341;DHT22;6870;50.944;6.932;2022-12-18T06:33:35;15.70;39.40
7341;DHT22;6870;50.944;6.932;2022-12-18T06:36:06;15.60;39.50
7341;DHT22;6870;50.944;6.932;2022-12-18T06:38:40;15.70;39.50
7341;DHT22;6870;50.944;6.932;2022-12-18T06:41:11;15.70;39.50
7341;DHT22;6870;50.944;6.932;2022-12-18T06:43:40;15.80;39.40
7341;DHT22;6870;50.944;6.932;2022-12-18T06:46:09;15.80;39.30
7341;DHT22;6870;50.944;6.932;2022-12-18T06:48:37;15.80;39.70
7341;DHT22;6870;50.944;6.932;2022-12-18T06:51:05;15.70;39.50
7341;DHT22;6870;50.944;6.932;2022-12-18T06:53:34;15.70;39.60
7341;DHT22;6870;50.944;6.932;2022-12-18T06:56:05;15.70;39.50
7341;DHT22;6870;50.944;6.932;2022-12-18T06:58:36;15.70;39.00
7341;DHT22;6870;50.944;6.932;2022-12-18T07:01:06;15.70;39.70
7341;DHT22;6870;50.944;6.932;2022-12-18T07:03:36;15.70;39.70
7341;DHT22;6870;50.944;6.932;2022-12-18T07:06:05;15.70;39.80
7341;DHT22;6870;50.944;6.932;2022-12-18T07:08:34;15.60;39.40
7341;DHT22;6870;50.944;6.932;2022-12-18T07:11:04;15.80;39.50
7341;DHT22;6870;50.944;6.932;2022-12-18T07:13:33;15.70;39.40
7341;DHT22;6870;50.944;6.932;2022-12-18T07:16:06;15.80;39.60
7341;DHT22;6870;50.944;6.932;2022-12-18T07:18:44;15.90;39.70
7341;DHT22;6870;50.944;6.932;2022-12-18T07:21:14;15.70;39.30
7341;DHT22;6870;50.944;6.932;2022-12-18T07:23:43;15.70;39.40
7341;DHT22;6870;50.944;6.932;2022-12-18T07:26:16;15.80;39.90
7341;DHT22;6870;50.944;6.932;2022-12-18T07:28:45;15.70;39.60
7341;DHT22;6870;50.944;6.932;2022-12-18T07:31:15;15.80;39.50
7341;DHT22;6870;50.944;6.932;2022-12-18T07:33:47;15.90;40.00
7341;DHT22;6870;50.944;6.932;2022-12-18T07:36:16;15.80;39.60
7341;DHT22;6870;50.944;6.932;2022-12-18T07:38:46;15.90;40.00
7341;DHT22;6870;50.944;6.932;2022-12-18T07:41:16;15.70;39.80
7341;DHT22;6870;50.944;6.932;2022-12-18T07:43:45;15.80;39.90
7341;DHT22;6870;50.944;6.932;2022-12-18T07:46:14;15.60;40.00
7341;DHT22;6870;50.944;6.932;2022-12-18T07:48:43;15.70;40.10
7341;DHT22;6870;50.944;6.932;2022-12-18T07:51:16;15.70;39.90
7341;DHT22;6870;50.944;6.932;2022-12-18T07:53:44;15.70;39.70
7341;DHT22;6870;50.944;6.932;2022-12-18T07:56:19;15.80;39.70
7341;DHT22;6870;50.944;6.932;2022-12-18T07:58:54;16.20;39.80
7341;DHT22;6870;50.944;6.932;2022-12-18T08:01:22;16.20;40.00
7341;DHT22;6870;50.944;6.932;2022-12-18T08:03:51;15.90;39.80
7341;DHT22;6870;50.944;6.932;2022-12-18T08:06:19;15.90;39.60
7341;DHT22;6870;50.944;6.932;2022-12-18T08:08:51;15.90;39.60
7341;DHT22;6870;50.944;6.932;2022-12-18T08:11:22;16.30;39.60
7341;DHT22;6870;50.944;6.932;2022-12-18T08:13:51;15.80;39.50
7341;DHT22;6870;50.944;6.932;2022-12-18T08:16:21;16.00;39.80
7341;DHT22;6870;50.944;6.932;2022-12-18T08:18:51;15.60;39.20
7341;DHT22;6870;50.944;6.932;2022-12-18T08:21:22;15.70;39.50
7341;DHT22;6870;50.944;6.932;2022-12-18T08:23:53;15.70;39.50
7341;DHT22;6870;50.944;6.932;2022-12-18T08:26:24;16.30;40.00
7341;DHT22;6870;50.944;6.932;2022-12-18T08:28:53;15.70;39.10
7341;DHT22;6870;50.944;6.932;2022-12-18T08:31:22;16.30;39.50
7341;DHT22;6870;50.944;6.932;2022-12-18T08:33:52;15.70;39.30
7341;DHT22;6870;50.944;6.932;2022-12-18T08:36:21;15.80;38.90
7341;DHT22;6870;50.944;6.932;2022-12-18T08:38:51;15.90;39.00
7341;DHT22;6870;50.944;6.932;2022-12-18T08:41:20;16.40;39.50
7341;DHT22;6870;50.944;6.932;2022-12-18T08:43:50;16.30;39.40
7341;DHT22;6870;50.944;6.932;2022-12-18T08:46:37;15.90;38.90
7341;DHT22;6870;50.944;6.932;2022-12-18T08:49:07;16.40;40.20
7341;DHT22;6870;50.944;6.932;2022-12-18T08:51:36;16.50;39.30
7341;DHT22;6870;50.944;6.932;2022-12-18T08:54:04;16.50;39.20
7341;DHT22;6870;50.944;6.932;2022-12-18T08:56:33;16.40;38.70
7341;DHT22;6870;50.944;6.932;2022-12-18T08:59:03;16.40;38.40
7341;DHT22;6870;50.944;6.932;2022-12-18T09:01:31;16.60;38.00
7341;DHT22;6870;50.944;6.932;2022-12-18T09:04:01;17.00;38.00
7341;DHT22;6870;50.944;6.932;2022-12-18T09:06:30;16.50;37.50
7341;DHT22;6870;50.944;6.932;2022-12-18T09:08:58;16.80;37.50
7341;DHT22;6870;50.944;6.932;2022-12-18T09:11:27;17.00;38.30
7341;DHT22;6870;50.944;6.932;2022-12-18T09:13:56;17.00;37.10
7341;DHT22;6870;50.944;6.932;2022-12-18T09:16:27;17.00;37.00
7341;DHT22;6870;50.944;6.932;2022-12-18T09:18:59;17.10;37.20
7341;DHT22;6870;50.944;6.932;2022-12-18T09:21:28;17.00;37.20
7341;DHT22;6870;50.944;6.932;2022-12-18T09:24:01;17.00;37.10
7341;DHT22;6870;50.944;6.932;2022-12-18T09:26:31;17.00;36.90
7341;DHT22;6870;50.944;6.932;2022-12-18T09:28:59;15.70;17.50
7341;DHT22;6870;50.944;6.932;2022-12-18T09:31:28;14.10;15.70
7341;DHT22;6870;50.944;6.932;2022-12-18T09:33:56;12.90;14.30
7341;DHT22;6870;50.944;6.932;2022-12-18T09:36:25;12.90;13.90
7341;DHT22;6870;50.944;6.932;2022-12-18T09:38:53;12.40;14.20
7341;DHT22;6870;50.944;6.932;2022-12-18T09:41:35;12.40;14.20
7341;DHT22;6870;50.944;6.932;2022-12-18T09:44:13;12.30;13.60
7341;DHT22;6870;50.944;6.932;2022-12-18T09:47:00;12.90;24.60
7341;DHT22;6870;50.944;6.932;2022-12-18T09:49:38;14.50;23.40
7341;DHT22;6870;50.944;6.932;2022-12-18T09:52:21;15.60;22.20
7341;DHT22;6870;50.944;6.932;2022-12-18T09:54:55;16.10;21.70
7341;DHT22;6870;50.944;6.932;2022-12-18T09:57:25;16.00;21.20
7341;DHT22;6870;50.944;6.932;2022-12-18T09:59:56;16.50;21.60
7341;DHT22;6870;50.944;6.932;2022-12-18T10:02:29;16.40;21.60
7341;DHT22;6870;50.944;6.932;2022-12-18T10:05:07;16.30;21.70
7341;DHT22;6870;50.944;6.932;2022-12-18T10:07:53;16.30;22.00
7341;DHT22;6870;50.944;6.932;2022-12-18T10:10:32;16.60;22.40
7341;DHT22;6870;50.944;6.932;2022-12-18T10:13:18;16.50;22.50
7341;DHT22;6870;50.944;6.932;2022-12-18T10:16:00;16.50;22.90
7341;DHT22;6870;50.944;6.932;2022-12-18T10:18:54;16.50;23.10
7341;DHT22;6870;50.944;6.932;2022-12-18T10:21:34;16.60;23.40
7341;DHT22;6870;50.944;6.932;2022-12-18T10:24:15;16.40;23.60
7341;DHT22;6870;50.944;6.932;2022-12-18T10:26:46;17.00;24.20
7341;DHT22;6870;50.944;6.932;2022-12-18T10:29:16;16.90;24.30
7341;DHT22;6870;50.944;6.932;2022-12-18T10:31:44;16.60;24.10
7341;DHT22;6870;50.944;6.932;2022-12-18T10:34:14;17.10;24.60
7341;DHT22;6870;50.944;6.932;2022-12-18T10:36:42;17.30;25.00
7341;DHT22;6870;50.944;6.932;2022-12-18T10:39:18;17.30;25.40
7341;DHT22;6870;50.944;6.932;2022-12-18T10:41:50;17.10;25.50
7341;DHT22;6870;50.944;6.932;2022-12-18T10:44:20;17.20;25.70
7341;DHT22;6870;50.944;6.932;2022-12-18T10:46:50;17.40;25.90
7341;DHT22;6870;50.944;6.932;2022-12-18T10:49:26;17.20;26.00
7341;DHT22;6870;50.944;6.932;2022-12-18T10:52:05;17.40;26.40
7341;DHT22;6870;50.944;6.932;2022-12-18T10:54:36;17.30;26.30
7341;DHT22;6870;50.944;6.932;2022-12-18T10:57:16;17.30;26.30
7341;DHT22;6870;50.944;6.932;2022-12-18T10:59:53;17.00;26.20
7341;DHT22;6870;50.944;6.932;2022-12-18T11:02:27;17.40;26.60
7341;DHT22;6870;50.944;6.932;2022-12-18T11:05:01;17.20;27.10
7341;DHT22;6870;50.944;6.932;2022-12-18T11:07:52;17.20;26.70
7341;DHT22;6870;50.944;6.932;2022-12-18T11:10:22;17.50;26.70
7341;DHT22;6870;50.944;6.932;2022-12-18T11:12:52;17.40;26.90
7341;DHT22;6870;50.944;6.932;2022-12-18T11:15:23;17.40;27.40
7341;DHT22;6870;50.944;6.932;2022-12-18T11:17:54;16.90;25.80
7341;DHT22;6870;50.944;6.932;2022-12-18T11:20:31;16.30;27.10
7341;DHT22;6870;50.944;6.932;2022-12-18T11:23:02;16.40;27.10
7341;DHT22;6870;50.944;6.932;2022-12-18T11:25:32;16.80;27.30
7341;DHT22;6870;50.944;6.932;2022-12-18T11:28:04;16.60;26.70
7341;DHT22;6870;50.944;6.932;2022-12-18T11:30:34;16.50;26.30
7341;DHT22;6870;50.944;6.932;2022-12-18T11:33:06;16.30;26.00
7341;DHT22;6870;50.944;6.932;2022-12-18T11:35:43;16.10;25.80
7341;DHT22;6870;50.944;6.932;2022-12-18T11:38:19;16.20;26.00
7341;DHT22;6870;50.944;6.932;2022-12-18T11:40:55;16.40;26.20
7341;DHT22;6870;50.944;6.932;2022-12-18T11:43:27;16.30;26.30
7341;DHT22;6870;50.944;6.932;2022-12-18T11:46:01;16.30;26.30
7341;DHT22;6870;50.944;6.932;2022-12-18T11:48:36;16.40;26.50
7341;DHT22;6870;50.944;6.932;2022-12-18T11:51:14;16.70;26.70
7341;DHT22;6870;50.944;6.932;2022-12-18T11:53:44;16.40;26.80
7341;DHT22;6870;50.944;6.932;2022-12-18T11:56:30;16.20;26.90
7341;DHT22;6870;50.944;6.932;2022-12-18T11:59:17;16.10;27.00
7341;DHT22;6870;50.944;6.932;2022-12-18T12:01:51;16.40;27.40
7341;DHT22;6870;50.944;6.932;2022-12-18T12:04:40;16.40;27.80
7341;DHT22;6870;50.944;6.932;2022-12-18T12:07:31;15.70;27.70
7341;DHT22;6870;50.944;6.932;2022-12-18T12:10:19;16.20;28.50
7341;DHT22;6870;50.944;6.932;2022-12-18T12:13:03;15.90;29.00
7341;DHT22;6870;50.944;6.932;2022-12-18T12:15:44;16.10;29.00
7341;DHT22;6870;50.944;6.932;2022-12-18T12:18:22;15.90;29.10
7341;DHT22;6870;50.944;6.932;2022-12-18T12:21:02;15.70;29.30
7341;DHT22;6870;50.944;6.932;2022-12-18T12:23:41;15.60;29.40
7341;DHT22;6870;50.944;6.932;2022-12-18T12:26:16;15.60;29.70
7341;DHT22;6870;50.944;6.932;2022-12-18T12:29:05;15.70;29.90
7341;DHT22;6870;50.944;6.932;2022-12-18T12:31:59;15.70;30.00
7341;DHT22;6870;50.944;6.932;2022-12-18T12:34:38;15.60;30.30
7341;DHT22;6870;50.944;6.932;2022-12-18T12:37:25;15.60;29.80
7341;DHT22;6870;50.944;6.932;2022-12-18T12:40:01;15.70;30.60
7341;DHT22;6870;50.944;6.932;2022-12-18T12:42:49;15.70;30.70
7341;DHT22;6870;50.944;6.932;2022-12-18T12:45:41;15.50;30.60
7341;DHT22;6870;50.944;6.932;2022-12-18T12:48:18;15.30;30.60
7341;DHT22;6870;50.944;6.932;2022-12-18T12:50:53;15.30;30.70
7341;DHT22;6870;50.944;6.932;2022-12-18T12:53:27;15.70;31.00
7341;DHT22;6870;50.944;6.932;2022-12-18T12:55:59;15.30;30.70
7341;DHT22;6870;50.944;6.932;2022-12-18T12:58:33;15.60;31.00
7341;DHT22;6870;50.944;6.932;2022-12-18T13:01:16;15.30;30.80
7341;DHT22;6870;50.944;6.932;2022-12-18T13:03:58;15.60;31.00
7341;DHT22;6870;50.944;6.932;2022-12-18T13:06:39;15.30;30.80
7341;DHT22;6870;50.944;6.932;2022-12-18T13:09:12;15.70;31.10
7341;DHT22;6870;50.944;6.932;2022-12-18T13:11:43;15.70;31.50
7341;DHT22;6870;50.944;6.932;2022-12-18T13:14:31;15.70;31.90
7341;DHT22;6870;50.944;6.932;2022-12-18T13:17:24;15.70;32.10
7341;DHT22;6870;50.944;6.932;2022-12-18T13:20:08;15.60;32.00
7341;DHT22;6870;50.944;6.932;2022-12-18T13:22:40;15.60;32.40
7341;DHT22;6870;50.944;6.932;2022-12-18T13:25:29;15.90;32.70
7341;DHT22;6870;50.944;6.932;2022-12-18T13:28:06;15.60;33.00
7341;DHT22;6870;50.944;6.932;2022-12-18T13:30:51;15.60;33.10
7341;DHT22;6870;50.944;6.932;2022-12-18T13:33:47;15.60;32.60
7341;DHT22;6870;50.944;6.932;2022-12-18T13:36:36;15.70;33.30
7341;DHT22;6870;50.944;6.932;2022-12-18T13:39:30;15.60;33.50
7341;DHT22;6870;50.944;6.932;2022-12-18T13:45:46;15.70;34.00
7341;DHT22;6870;50.944;6.932;2022-12-18T13:48:22;15.60;33.80
7341;DHT22;6870;50.944;6.932;2022-12-18T13:51:00;15.50;33.90
7341;DHT22;6870;50.944;6.932;2022-12-18T13:53:33;15.40;33.90
7341;DHT22;6870;50.944;6.932;2022-12-18T13:56:05;15.60;34.20
7341;DHT22;6870;50.944;6.932;2022-12-18T13:58:34;15.70;34.30
7341;DHT22;6870;50.944;6.932;2022-12-18T14:01:04;15.30;34.00
7341;DHT22;6870;50.944;6.932;2022-12-18T14:03:32;15.60;34.70
7341;DHT22;6870;50.944;6.932;2022-12-18T14:06:03;15.70;34.90
7341;DHT22;6870;50.944;6.932;2022-12-18T14:08:38;15.70;35.40
7341;DHT22;6870;50.944;6.932;2022-12-18T14:11:18;15.60;35.50
7341;DHT22;6870;50.944;6.932;2022-12-18T14:13:49;15.60;35.60
7341;DHT22;6870;50.944;6.932;2022-12-18T14:16:19;15.60;35.60
7341;DHT22;6870;50.944;6.932;2022-12-18T14:18:50;15.60;35.50
7341;DHT22;6870;50.944;6.932;2022-12-18T14:21:27;15.60;35.40
7341;DHT22;6870;50.944;6.932;2022-12-18T14:24:11;15.80;35.60
7341;DHT22;6870;50.944;6.932;2022-12-18T14:26:46;15.80;35.70
7341;DHT22;6870;50.944;6.932;2022-12-18T14:29:24;15.70;35.50
7341;DHT22;6870;50.944;6.932;2022-12-18T14:32:12;15.70;35.50
7341;DHT22;6870;50.944;6.932;2022-12-18T14:34:46;15.70;35.10
7341;DHT22;6870;50.944;6.932;2022-12-18T14:37:17;15.70;35.00
7341;DHT22;6870;50.944;6.932;2022-12-18T14:39:55;15.70;34.80
7341;DHT22;6870;50.944;6.932;2022-12-18T14:42:25;15.80;34.60
7341;DHT22;6870;50.944;6.932;2022-12-18T14:45:32;15.80;34.40
7341;DHT22;6870;50.944;6.932;2022-12-18T14:48:16;15.80;34.10
7341;DHT22;6870;50.944;6.932;2022-12-18T14:50:58;16.00;34.20
7341;DHT22;6870;50.944;6.932;2022-12-18T14:53:33;15.80;34.00
7341;DHT22;6870;50.944;6.932;2022-12-18T14:56:14;16.10;34.30
7341;DHT22;6870;50.944;6.932;2022-12-18T14:58:48;15.80;33.90
7341;DHT22;6870;50.944;6.932;2022-12-18T15:01:19;15.70;33.90
7341;DHT22;6870;50.944;6.932;2022-12-18T15:04:00;15.60;33.60
7341;DHT22;6870;50.944;6.932;2022-12-18T15:06:32;15.80;33.60
7341;DHT22;6870;50.944;6.932;2022-12-18T15:09:04;15.70;33.50
7341;DHT22;6870;50.944;6.932;2022-12-18T15:11:46;15.80;33.60
7341;DHT22;6870;50.944;6.932;2022-12-18T15:14:31;15.70;32.80
7341;DHT22;6870;50.944;6.932;2022-12-18T15:17:03;16.30;33.70
7341;DHT22;6870;50.944;6.932;2022-12-18T15:19:38;15.90;33.40
7341;DHT22;6870;50.944;6.932;2022-12-18T15:22:20;15.70;33.10
7341;DHT22;6870;50.944;6.932;2022-12-18T15:24:50;15.70;33.00
7341;DHT22;6870;50.944;6.932;2022-12-18T15:27:25;15.70;33.20
7341;DHT22;6870;50.944;6.932;2022-12-18T15:30:03;15.80;33.60
7341;DHT22;6870;50.944;6.932;2022-12-18T15:32:45;16.20;34.20
7341;DHT22;6870;50.944;6.932;2022-12-18T15:35:17;16.20;34.00
7341;DHT22;6870;50.944;6.932;2022-12-18T15:37:46;16.30;34.30
7341;DHT22;6870;50.944;6.932;2022-12-18T15:40:15;16.00;33.70
7341;DHT22;6870;50.944;6.932;2022-12-18T15:42:46;16.20;33.90
7341;DHT22;6870;50.944;6.932;2022-12-18T15:45:33;16.10;33.60
7341;DHT22;6870;50.944;6.932;2022-12-18T15:48:15;15.70;33.30
7341;DHT22;6870;50.944;6.932;2022-12-18T15:50:50;15.80;33.70
7341;DHT22;6870;50.944;6.932;2022-12-18T15:53:20;15.70;33.00
7341;DHT22;6870;50.944;6.932;2022-12-18T15:55:48;15.90;33.00
7341;DHT22;6870;50.944;6.932;2022-12-18T15:58:34;15.70;33.40
7341;DHT22;6870;50.944;6.932;2022-12-18T16:01:02;16.10;34.00
7341;DHT22;6870;50.944;6.932;2022-12-18T16:03:30;15.80;33.80
7341;DHT22;6870;50.944;6.932;2022-12-18T16:06:00;16.10;34.10
7341;DHT22;6870;50.944;6.932;2022-12-18T16:08:30;15.80;34.00
7341;DHT22;6870;50.944;6.932;2022-12-18T16:10:58;15.90;34.00
7341;DHT22;6870;50.944;6.932;2022-12-18T16:13:27;15.90;34.00
7341;DHT22;6870;50.944;6.932;2022-12-18T16:15:55;16.10;34.20
7341;DHT22;6870;50.944;6.932;2022-12-18T16:18:23;15.70;33.70
7341;DHT22;6870;50.944;6.932;2022-12-18T16:20:51;15.70;33.90
7341;DHT22;6870;50.944;6.932;2022-12-18T16:23:20;15.90;34.20
7341;DHT22;6870;50.944;6.932;2022-12-18T16:25:48;15.80;34.10
7341;DHT22;6870;50.944;6.932;2022-12-18T16:28:16;15.60;34.00
7341;DHT22;6870;50.944;6.932;2022-12-18T16:30:44;15.70;34.10
7341;DHT22;6870;50.944;6.932;2022-12-18T16:33:12;16.00;34.20
7341;DHT22;6870;50.944;6.932;2022-12-18T16:35:40;16.00;34.30
7341;DHT22;6870;50.944;6.932;2022-12-18T16:38:08;15.70;33.80
7341;DHT22;6870;50.944;6.932;2022-12-18T16:40:38;16.00;34.20
7341;DHT22;6870;50.944;6.932;2022-12-18T16:43:28;15.90;34.00